sensor_id;sensor_type;location;lat;lon;timestamp;P1;durP1;ratioP1;P2;durP2;ratioP2
27977;SDS011;15314;49.248;6.968;2023-08-17T00:00:32;11.10;;;10.30;;
27977;SDS011;15314;49.248;6.968;2023-08-17T00:01:33;10.80;;;10.00;;
27977;SDS011;15314;49.248;6.968;2023-08-17T00:02:33;10.63;;;9.80;;
27977;SDS011;15314;49.248;6.968;2023-08-17T00:03:34;11.43;;;10.48;;
27977;SDS011;15314;49.248;6.968;2023-08-17T00:04:35;10.95;;;10.15;;
27977;SDS011;15314;49.248;6.968;2023-08-17T00:05:35;10.73;;;9.75;;
27977;SDS011;15314;49.248;6.968;2023-08-17T00:06:37;13.07;;;11.95;;
27977;SDS011;15314;49.248;6.968;2023-08-17T00:07:37;10.52;;;9.55;;
27977;SDS011;15314;49.248;6.968;2023-08-17T00:08:38;10.93;;;10.00;;
27977;SDS011;15314;49.248;6.968;2023-08-17T00:09:39;10.93;;;9.98;;
27977;SDS011;15314;49.248;6.968;2023-08-17T00:10:39;12.88;;;11.75;;
27977;SDS011;15314;49.248;6.968;2023-08-17T00:11:40;12.43;;;11.20;;
27977;SDS011;15314;49.248;6.968;2023-08-17T00:12:41;13.82;;;12.43;;
27977;SDS011;15314;49.248;6.968;2023-08-17T00:13:41;13.15;;;12.00;;
27977;SDS011;15314;49.248;6.968;2023-08-17T00:14:42;14.43;;;12.13;;
27977;SDS011;15314;49.248;6.968;2023-08-17T00:15:43;13.45;;;12.20;;
27977;SDS011;15314;49.248;6.968;2023-08-17T00:16:45;13.60;;;12.15;;
27977;SDS011;15314;49.248;6.968;2023-08-17T00:17:46;13.15;;;11.98;;
27977;SDS011;15314;49.248;6.968;2023-08-17T00:18:47;12.85;;;11.82;;
27977;SDS011;15314;49.248;6.968;2023-08-17T00:19:48;12.93;;;11.77;;
27977;SDS011;15314;49.248;6.968;2023-08-17T00:20:50;14.10;;;12.32;;
27977;SDS011;15314;49.248;6.968;2023-08-17T00:21:51;12.93;;;11.73;;
27977;SDS011;15314;49.248;6.968;2023-08-17T00:22:54;13.45;;;11.43;;
27977;SDS011;15314;49.248;6.968;2023-08-17T00:23:54;13.77;;;12.15;;
27977;SDS011;15314;49.248;6.968;2023-08-17T00:24:56;13.98;;;10.85;;
27977;SDS011;15314;49.248;6.968;2023-08-17T00:25:57;12.68;;;11.38;;
27977;SDS011;15314;49.248;6.968;2023-08-17T00:26:58;13.23;;;10.80;;
27977;SDS011;15314;49.248;6.968;2023-08-17T00:27:58;11.48;;;10.55;;
27977;SDS011;15314;49.248;6.968;2023-08-17T00:28:59;10.15;;;9.55;;
27977;SDS011;15314;49.248;6.968;2023-08-17T00:30:01;10.68;;;9.88;;
27977;SDS011;15314;49.248;6.968;2023-08-17T00:31:04;10.13;;;9.52;;
27977;SDS011;15314;49.248;6.968;2023-08-17T00:32:05;10.77;;;9.98;;
27977;SDS011;15314;49.248;6.968;2023-08-17T00:33:05;11.20;;;10.07;;
27977;SDS011;15314;49.248;6.968;2023-08-17T00:34:06;11.10;;;10.25;;
27977;SDS011;15314;49.248;6.968;2023-08-17T00:35:07;11.63;;;9.93;;
27977;SDS011;15314;49.248;6.968;2023-08-17T00:36:08;10.90;;;10.10;;
27977;SDS011;15314;49.248;6.968;2023-08-17T00:37:09;10.82;;;10.13;;
27977;SDS011;15314;49.248;6.968;2023-08-17T00:38:10;10.70;;;9.98;;
27977;SDS011;15314;49.248;6.968;2023-08-17T00:39:10;10.80;;;9.60;;
27977;SDS011;15314;49.248;6.968;2023-08-17T00:40:11;11.30;;;10.32;;
27977;SDS011;15314;49.248;6.968;2023-08-17T00:41:12;11.20;;;10.20;;
27977;SDS011;15314;49.248;6.968;2023-08-17T00:42:13;8.82;;;8.43;;
27977;SDS011;15314;49.248;6.968;2023-08-17T00:43:13;11.45;;;9.63;;
27977;SDS011;15314;49.248;6.968;2023-08-17T00:44:14;10.05;;;9.35;;
27977;SDS011;15314;49.248;6.968;2023-08-17T00:45:15;13.10;;;10.00;;
27977;SDS011;15314;49.248;6.968;2023-08-17T00:46:15;9.98;;;9.27;;
27977;SDS011;15314;49.248;6.968;2023-08-17T00:47:17;9.65;;;8.98;;
27977;SDS011;15314;49.248;6.968;2023-08-17T00:48:17;11.52;;;10.35;;
27977;SDS011;15314;49.248;6.968;2023-08-17T00:49:18;11.75;;;10.75;;
27977;SDS011;15314;49.248;6.968;2023-08-17T00:50:20;13.00;;;11.77;;
27977;SDS011;15314;49.248;6.968;2023-08-17T00:51:22;11.18;;;10.18;;
27977;SDS011;15314;49.248;6.968;2023-08-17T00:52:24;15.50;;;12.23;;
27977;SDS011;15314;49.248;6.968;2023-08-17T00:53:25;13.02;;;11.60;;
27977;SDS011;15314;49.248;6.968;2023-08-17T00:54:28;12.23;;;10.05;;
27977;SDS011;15314;49.248;6.968;2023-08-17T00:55:30;11.48;;;10.43;;
27977;SDS011;15314;49.248;6.968;2023-08-17T00:56:30;12.20;;;10.90;;
27977;SDS011;15314;49.248;6.968;2023-08-17T00:57:31;15.48;;;11.10;;
27977;SDS011;15314;49.248;6.968;2023-08-17T00:58:33;12.02;;;10.82;;
27977;SDS011;15314;49.248;6.968;2023-08-17T00:59:34;12.48;;;10.48;;
27977;SDS011;15314;49.248;6.968;2023-08-17T01:00:35;19.73;;;13.18;;
27977;SDS011;15314;49.248;6.968;2023-08-17T01:01:36;14.80;;;11.90;;
27977;SDS011;15314;49.248;6.968;2023-08-17T01:02:39;16.45;;;11.95;;
27977;SDS011;15314;49.248;6.968;2023-08-17T01:03:41;12.00;;;10.80;;
27977;SDS011;15314;49.248;6.968;2023-08-17T01:04:42;13.48;;;11.98;;
27977;SDS011;15314;49.248;6.968;2023-08-17T01:05:44;14.70;;;12.02;;
27977;SDS011;15314;49.248;6.968;2023-08-17T01:06:44;16.25;;;12.20;;
27977;SDS011;15314;49.248;6.968;2023-08-17T01:07:45;21.85;;;13.32;;
27977;SDS011;15314;49.248;6.968;2023-08-17T01:08:46;12.13;;;11.02;;
27977;SDS011;15314;49.248;6.968;2023-08-17T01:09:47;31.20;;;12.13;;
27977;SDS011;15314;49.248;6.968;2023-08-17T01:10:52;19.90;;;12.18;;
27977;SDS011;15314;49.248;6.968;2023-08-17T01:12:13;23.58;;;13.60;;
27977;SDS011;15314;49.248;6.968;2023-08-17T01:15:24;18.02;;;11.52;;
27977;SDS011;15314;49.248;6.968;2023-08-17T01:16:43;16.08;;;12.38;;
27977;SDS011;15314;49.248;6.968;2023-08-17T01:19:19;16.70;;;11.35;;
27977;SDS011;15314;49.248;6.968;2023-08-17T01:20:29;17.13;;;11.60;;
27977;SDS011;15314;49.248;6.968;2023-08-17T01:21:54;14.55;;;12.07;;
27977;SDS011;15314;49.248;6.968;2023-08-17T01:22:55;12.40;;;11.20;;
27977;SDS011;15314;49.248;6.968;2023-08-17T01:24:05;23.80;;;11.35;;
27977;SDS011;15314;49.248;6.968;2023-08-17T01:25:06;24.42;;;12.00;;
27977;SDS011;15314;49.248;6.968;2023-08-17T01:26:08;18.05;;;11.30;;
27977;SDS011;15314;49.248;6.968;2023-08-17T01:27:08;41.28;;;11.45;;
27977;SDS011;15314;49.248;6.968;2023-08-17T01:28:10;25.42;;;11.23;;
27977;SDS011;15314;49.248;6.968;2023-08-17T01:29:11;15.48;;;12.30;;
27977;SDS011;15314;49.248;6.968;2023-08-17T01:30:13;41.70;;;13.15;;
27977;SDS011;15314;49.248;6.968;2023-08-17T01:31:19;14.18;;;11.45;;
27977;SDS011;15314;49.248;6.968;2023-08-17T01:33:34;27.77;;;11.38;;
27977;SDS011;15314;49.248;6.968;2023-08-17T01:34:40;23.08;;;12.10;;
27977;SDS011;15314;49.248;6.968;2023-08-17T01:35:57;12.88;;;11.63;;
27977;SDS011;15314;49.248;6.968;2023-08-17T01:37:08;29.23;;;13.27;;
27977;SDS011;15314;49.248;6.968;2023-08-17T01:38:12;13.73;;;12.35;;
27977;SDS011;15314;49.248;6.968;2023-08-17T01:39:20;23.33;;;12.20;;
27977;SDS011;15314;49.248;6.968;2023-08-17T01:40:27;30.20;;;13.00;;
27977;SDS011;15314;49.248;6.968;2023-08-17T01:41:32;38.35;;;15.23;;
27977;SDS011;15314;49.248;6.968;2023-08-17T01:42:35;13.65;;;12.15;;
27977;SDS011;15314;49.248;6.968;2023-08-17T01:43:37;19.33;;;11.98;;
27977;SDS011;15314;49.248;6.968;2023-08-17T01:44:38;20.52;;;13.15;;
27977;SDS011;15314;49.248;6.968;2023-08-17T01:45:40;14.68;;;11.77;;
27977;SDS011;15314;49.248;6.968;2023-08-17T01:46:40;19.98;;;13.43;;
27977;SDS011;15314;49.248;6.968;2023-08-17T01:47:42;24.85;;;12.32;;
27977;SDS011;15314;49.248;6.968;2023-08-17T01:48:43;18.67;;;12.27;;
27977;SDS011;15314;49.248;6.968;2023-08-17T01:49:45;24.52;;;12.98;;
27977;SDS011;15314;49.248;6.968;2023-08-17T01:50:45;17.98;;;13.38;;
27977;SDS011;15314;49.248;6.968;2023-08-17T01:51:46;24.27;;;13.82;;
27977;SDS011;15314;49.248;6.968;2023-08-17T01:52:47;20.63;;;13.18;;
27977;SDS011;15314;49.248;6.968;2023-08-17T01:53:50;20.55;;;14.10;;
27977;SDS011;15314;49.248;6.968;2023-08-17T01:54:51;33.25;;;13.10;;
27977;SDS011;15314;49.248;6.968;2023-08-17T01:55:52;45.35;;;15.20;;
27977;SDS011;15314;49.248;6.968;2023-08-17T01:56:52;17.73;;;12.55;;
27977;SDS011;15314;49.248;6.968;2023-08-17T01:57:53;24.05;;;13.77;;
27977;SDS011;15314;49.248;6.968;2023-08-17T01:58:54;19.45;;;13.48;;
27977;SDS011;15314;49.248;6.968;2023-08-17T01:59:55;40.53;;;13.27;;
27977;SDS011;15314;49.248;6.968;2023-08-17T02:00:55;29.13;;;14.02;;
27977;SDS011;15314;49.248;6.968;2023-08-17T02:01:56;54.33;;;15.52;;
27977;SDS011;15314;49.248;6.968;2023-08-17T02:02:57;36.47;;;14.45;;
27977;SDS011;15314;49.248;6.968;2023-08-17T02:03:58;104.28;;;17.98;;
27977;SDS011;15314;49.248;6.968;2023-08-17T02:05:02;72.43;;;14.35;;
27977;SDS011;15314;49.248;6.968;2023-08-17T02:06:03;65.18;;;15.02;;
27977;SDS011;15314;49.248;6.968;2023-08-17T02:07:03;90.43;;;17.98;;
27977;SDS011;15314;49.248;6.968;2023-08-17T02:08:04;80.95;;;18.98;;
27977;SDS011;15314;49.248;6.968;2023-08-17T02:09:05;30.67;;;15.15;;
27977;SDS011;15314;49.248;6.968;2023-08-17T02:10:06;50.45;;;14.82;;
27977;SDS011;15314;49.248;6.968;2023-08-17T02:11:07;97.22;;;14.95;;
27977;SDS011;15314;49.248;6.968;2023-08-17T02:12:10;37.88;;;14.02;;
27977;SDS011;15314;49.248;6.968;2023-08-17T02:13:10;15.90;;;13.38;;
27977;SDS011;15314;49.248;6.968;2023-08-17T02:14:13;193.77;;;25.45;;
27977;SDS011;15314;49.248;6.968;2023-08-17T02:15:14;56.42;;;16.95;;
27977;SDS011;15314;49.248;6.968;2023-08-17T02:16:16;36.03;;;16.30;;
27977;SDS011;15314;49.248;6.968;2023-08-17T02:17:18;33.30;;;16.55;;
27977;SDS011;15314;49.248;6.968;2023-08-17T02:18:19;47.30;;;18.10;;
27977;SDS011;15314;49.248;6.968;2023-08-17T02:19:20;43.90;;;16.45;;
27977;SDS011;15314;49.248;6.968;2023-08-17T02:20:20;31.58;;;14.90;;
27977;SDS011;15314;49.248;6.968;2023-08-17T02:21:21;54.55;;;17.60;;
27977;SDS011;15314;49.248;6.968;2023-08-17T02:22:22;45.97;;;16.48;;
27977;SDS011;15314;49.248;6.968;2023-08-17T02:23:22;74.32;;;17.52;;
27977;SDS011;15314;49.248;6.968;2023-08-17T02:24:23;97.82;;;17.80;;
27977;SDS011;15314;49.248;6.968;2023-08-17T02:25:24;32.45;;;15.18;;
27977;SDS011;15314;49.248;6.968;2023-08-17T02:26:26;86.65;;;19.17;;
27977;SDS011;15314;49.248;6.968;2023-08-17T02:27:28;60.55;;;16.77;;
27977;SDS011;15314;49.248;6.968;2023-08-17T02:28:32;68.00;;;18.60;;
27977;SDS011;15314;49.248;6.968;2023-08-17T02:29:32;49.13;;;16.27;;
27977;SDS011;15314;49.248;6.968;2023-08-17T02:30:33;139.93;;;21.00;;
27977;SDS011;15314;49.248;6.968;2023-08-17T02:31:34;58.88;;;16.10;;
27977;SDS011;15314;49.248;6.968;2023-08-17T02:32:34;63.35;;;17.00;;
27977;SDS011;15314;49.248;6.968;2023-08-17T02:33:35;33.25;;;14.18;;
27977;SDS011;15314;49.248;6.968;2023-08-17T02:34:37;58.97;;;16.50;;
27977;SDS011;15314;49.248;6.968;2023-08-17T02:35:38;159.18;;;22.25;;
27977;SDS011;15314;49.248;6.968;2023-08-17T02:36:38;57.33;;;14.38;;
27977;SDS011;15314;49.248;6.968;2023-08-17T02:37:39;85.13;;;17.88;;
27977;SDS011;15314;49.248;6.968;2023-08-17T02:38:40;90.18;;;16.85;;
27977;SDS011;15314;49.248;6.968;2023-08-17T02:39:40;102.72;;;17.23;;
27977;SDS011;15314;49.248;6.968;2023-08-17T02:40:41;49.72;;;16.15;;
27977;SDS011;15314;49.248;6.968;2023-08-17T02:41:43;89.78;;;18.80;;
27977;SDS011;15314;49.248;6.968;2023-08-17T02:42:44;117.60;;;20.15;;
27977;SDS011;15314;49.248;6.968;2023-08-17T02:43:45;63.80;;;16.90;;
27977;SDS011;15314;49.248;6.968;2023-08-17T02:44:47;46.80;;;16.65;;
27977;SDS011;15314;49.248;6.968;2023-08-17T02:45:48;29.92;;;15.93;;
27977;SDS011;15314;49.248;6.968;2023-08-17T02:46:49;58.92;;;16.75;;
27977;SDS011;15314;49.248;6.968;2023-08-17T02:47:49;26.55;;;12.85;;
27977;SDS011;15314;49.248;6.968;2023-08-17T02:48:50;20.23;;;13.23;;
27977;SDS011;15314;49.248;6.968;2023-08-17T02:49:51;31.35;;;13.23;;
27977;SDS011;15314;49.248;6.968;2023-08-17T02:50:52;22.60;;;13.63;;
27977;SDS011;15314;49.248;6.968;2023-08-17T02:51:52;30.48;;;13.57;;
27977;SDS011;15314;49.248;6.968;2023-08-17T02:52:53;52.65;;;14.60;;
27977;SDS011;15314;49.248;6.968;2023-08-17T02:53:54;29.40;;;13.80;;
27977;SDS011;15314;49.248;6.968;2023-08-17T02:54:54;38.13;;;14.57;;
27977;SDS011;15314;49.248;6.968;2023-08-17T02:55:56;29.70;;;13.63;;
27977;SDS011;15314;49.248;6.968;2023-08-17T02:56:57;18.65;;;12.20;;
27977;SDS011;15314;49.248;6.968;2023-08-17T02:57:59;17.85;;;13.02;;
27977;SDS011;15314;49.248;6.968;2023-08-17T02:59:00;62.67;;;14.15;;
27977;SDS011;15314;49.248;6.968;2023-08-17T03:00:01;22.08;;;13.60;;
27977;SDS011;15314;49.248;6.968;2023-08-17T03:01:02;27.92;;;13.48;;
27977;SDS011;15314;49.248;6.968;2023-08-17T03:02:03;94.32;;;18.20;;
27977;SDS011;15314;49.248;6.968;2023-08-17T03:03:04;31.77;;;13.80;;
27977;SDS011;15314;49.248;6.968;2023-08-17T03:04:05;59.95;;;17.23;;
27977;SDS011;15314;49.248;6.968;2023-08-17T03:05:05;41.40;;;13.75;;
27977;SDS011;15314;49.248;6.968;2023-08-17T03:06:08;41.60;;;14.27;;
27977;SDS011;15314;49.248;6.968;2023-08-17T03:07:09;87.50;;;15.35;;
27977;SDS011;15314;49.248;6.968;2023-08-17T03:08:10;60.25;;;15.10;;
27977;SDS011;15314;49.248;6.968;2023-08-17T03:09:11;25.00;;;13.60;;
27977;SDS011;15314;49.248;6.968;2023-08-17T03:10:11;35.00;;;14.00;;
27977;SDS011;15314;49.248;6.968;2023-08-17T03:11:12;61.50;;;17.13;;
27977;SDS011;15314;49.248;6.968;2023-08-17T03:12:13;175.25;;;26.85;;
27977;SDS011;15314;49.248;6.968;2023-08-17T03:13:14;16.27;;;13.30;;
27977;SDS011;15314;49.248;6.968;2023-08-17T03:14:14;26.30;;;14.18;;
27977;SDS011;15314;49.248;6.968;2023-08-17T03:15:15;23.30;;;14.02;;
27977;SDS011;15314;49.248;6.968;2023-08-17T03:16:16;19.13;;;13.23;;
27977;SDS011;15314;49.248;6.968;2023-08-17T03:17:17;28.45;;;14.98;;
27977;SDS011;15314;49.248;6.968;2023-08-17T03:18:17;22.30;;;13.43;;
27977;SDS011;15314;49.248;6.968;2023-08-17T03:19:18;17.17;;;13.73;;
27977;SDS011;15314;49.248;6.968;2023-08-17T03:20:19;16.20;;;13.13;;
27977;SDS011;15314;49.248;6.968;2023-08-17T03:21:19;37.42;;;15.13;;
27977;SDS011;15314;49.248;6.968;2023-08-17T03:22:21;18.27;;;13.93;;
27977;SDS011;15314;49.248;6.968;2023-08-17T03:23:22;24.42;;;14.10;;
27977;SDS011;15314;49.248;6.968;2023-08-17T03:24:23;28.45;;;15.55;;
27977;SDS011;15314;49.248;6.968;2023-08-17T03:25:23;28.77;;;16.40;;
27977;SDS011;15314;49.248;6.968;2023-08-17T03:26:24;51.45;;;18.30;;
27977;SDS011;15314;49.248;6.968;2023-08-17T03:27:25;20.42;;;15.43;;
27977;SDS011;15314;49.248;6.968;2023-08-17T03:28:28;23.60;;;15.05;;
27977;SDS011;15314;49.248;6.968;2023-08-17T03:29:29;22.52;;;18.35;;
27977;SDS011;15314;49.248;6.968;2023-08-17T03:30:30;25.20;;;17.58;;
27977;SDS011;15314;49.248;6.968;2023-08-17T03:31:30;20.55;;;14.40;;
27977;SDS011;15314;49.248;6.968;2023-08-17T03:32:31;23.58;;;14.88;;
27977;SDS011;15314;49.248;6.968;2023-08-17T03:33:32;83.20;;;21.23;;
27977;SDS011;15314;49.248;6.968;2023-08-17T03:34:33;21.88;;;14.73;;
27977;SDS011;15314;49.248;6.968;2023-08-17T03:35:33;21.17;;;14.90;;
27977;SDS011;15314;49.248;6.968;2023-08-17T03:36:34;40.22;;;17.85;;
27977;SDS011;15314;49.248;6.968;2023-08-17T03:37:35;31.55;;;16.25;;
27977;SDS011;15314;49.248;6.968;2023-08-17T03:38:36;25.50;;;14.38;;
27977;SDS011;15314;49.248;6.968;2023-08-17T03:39:39;30.05;;;15.25;;
27977;SDS011;15314;49.248;6.968;2023-08-17T03:40:39;42.45;;;18.05;;
27977;SDS011;15314;49.248;6.968;2023-08-17T03:41:41;17.17;;;14.88;;
27977;SDS011;15314;49.248;6.968;2023-08-17T03:42:42;51.08;;;20.20;;
27977;SDS011;15314;49.248;6.968;2023-08-17T03:43:43;30.65;;;17.17;;
27977;SDS011;15314;49.248;6.968;2023-08-17T03:44:43;24.55;;;16.20;;
27977;SDS011;15314;49.248;6.968;2023-08-17T03:45:44;29.10;;;17.05;;
27977;SDS011;15314;49.248;6.968;2023-08-17T03:46:45;27.42;;;16.00;;
27977;SDS011;15314;49.248;6.968;2023-08-17T03:47:47;59.65;;;21.83;;
27977;SDS011;15314;49.248;6.968;2023-08-17T03:48:47;17.35;;;15.32;;
27977;SDS011;15314;49.248;6.968;2023-08-17T03:49:48;29.58;;;18.60;;
27977;SDS011;15314;49.248;6.968;2023-08-17T03:50:52;41.67;;;19.65;;
27977;SDS011;15314;49.248;6.968;2023-08-17T03:51:55;30.25;;;18.48;;
27977;SDS011;15314;49.248;6.968;2023-08-17T03:52:55;16.70;;;15.30;;
27977;SDS011;15314;49.248;6.968;2023-08-17T03:53:56;29.83;;;16.25;;
27977;SDS011;15314;49.248;6.968;2023-08-17T03:54:57;34.08;;;18.15;;
27977;SDS011;15314;49.248;6.968;2023-08-17T03:55:58;21.50;;;15.75;;
27977;SDS011;15314;49.248;6.968;2023-08-17T03:56:58;26.58;;;17.63;;
27977;SDS011;15314;49.248;6.968;2023-08-17T03:57:59;51.28;;;20.30;;
27977;SDS011;15314;49.248;6.968;2023-08-17T03:59:00;27.30;;;17.65;;
27977;SDS011;15314;49.248;6.968;2023-08-17T04:00:00;22.90;;;16.95;;
27977;SDS011;15314;49.248;6.968;2023-08-17T04:01:01;21.33;;;16.60;;
27977;SDS011;15314;49.248;6.968;2023-08-17T04:02:03;23.02;;;17.13;;
27977;SDS011;15314;49.248;6.968;2023-08-17T04:03:04;30.23;;;17.67;;
27977;SDS011;15314;49.248;6.968;2023-08-17T04:04:04;34.63;;;17.73;;
27977;SDS011;15314;49.248;6.968;2023-08-17T04:05:06;33.72;;;17.08;;
27977;SDS011;15314;49.248;6.968;2023-08-17T04:06:07;54.13;;;18.02;;
27977;SDS011;15314;49.248;6.968;2023-08-17T04:07:10;23.90;;;16.95;;
27977;SDS011;15314;49.248;6.968;2023-08-17T04:08:11;25.77;;;17.80;;
27977;SDS011;15314;49.248;6.968;2023-08-17T04:09:13;80.25;;;25.27;;
27977;SDS011;15314;49.248;6.968;2023-08-17T04:10:13;52.63;;;20.95;;
27977;SDS011;15314;49.248;6.968;2023-08-17T04:11:14;39.65;;;20.83;;
27977;SDS011;15314;49.248;6.968;2023-08-17T04:12:15;21.10;;;17.13;;
27977;SDS011;15314;49.248;6.968;2023-08-17T04:13:15;35.53;;;19.58;;
27977;SDS011;15314;49.248;6.968;2023-08-17T04:14:17;42.70;;;17.83;;
27977;SDS011;15314;49.248;6.968;2023-08-17T04:15:18;35.67;;;17.17;;
27977;SDS011;15314;49.248;6.968;2023-08-17T04:16:19;21.73;;;16.88;;
27977;SDS011;15314;49.248;6.968;2023-08-17T04:17:20;57.35;;;22.45;;
27977;SDS011;15314;49.248;6.968;2023-08-17T04:18:22;20.17;;;17.15;;
27977;SDS011;15314;49.248;6.968;2023-08-17T04:19:22;30.25;;;16.90;;
27977;SDS011;15314;49.248;6.968;2023-08-17T04:20:23;25.63;;;17.27;;
27977;SDS011;15314;49.248;6.968;2023-08-17T04:21:25;47.95;;;19.63;;
27977;SDS011;15314;49.248;6.968;2023-08-17T04:22:26;22.40;;;16.70;;
27977;SDS011;15314;49.248;6.968;2023-08-17T04:23:28;21.60;;;16.10;;
27977;SDS011;15314;49.248;6.968;2023-08-17T04:24:28;42.00;;;19.90;;
27977;SDS011;15314;49.248;6.968;2023-08-17T04:25:30;47.45;;;20.13;;
27977;SDS011;15314;49.248;6.968;2023-08-17T04:26:31;28.30;;;18.30;;
27977;SDS011;15314;49.248;6.968;2023-08-17T04:27:32;27.17;;;18.42;;
27977;SDS011;15314;49.248;6.968;2023-08-17T04:28:33;48.72;;;20.70;;
27977;SDS011;15314;49.248;6.968;2023-08-17T04:29:34;19.10;;;16.88;;
27977;SDS011;15314;49.248;6.968;2023-08-17T04:30:34;54.95;;;21.67;;
27977;SDS011;15314;49.248;6.968;2023-08-17T04:31:36;51.88;;;20.77;;
27977;SDS011;15314;49.248;6.968;2023-08-17T04:32:37;94.95;;;20.88;;
27977;SDS011;15314;49.248;6.968;2023-08-17T04:33:39;46.60;;;17.48;;
27977;SDS011;15314;49.248;6.968;2023-08-17T04:34:41;27.58;;;17.88;;
27977;SDS011;15314;49.248;6.968;2023-08-17T04:35:46;73.97;;;18.95;;
27977;SDS011;15314;49.248;6.968;2023-08-17T04:36:48;52.42;;;17.83;;
27977;SDS011;15314;49.248;6.968;2023-08-17T04:37:49;53.72;;;19.50;;
27977;SDS011;15314;49.248;6.968;2023-08-17T04:38:51;30.95;;;16.95;;
27977;SDS011;15314;49.248;6.968;2023-08-17T04:39:52;42.45;;;18.33;;
27977;SDS011;15314;49.248;6.968;2023-08-17T04:40:53;102.80;;;20.38;;
27977;SDS011;15314;49.248;6.968;2023-08-17T04:41:53;66.80;;;18.90;;
27977;SDS011;15314;49.248;6.968;2023-08-17T04:42:54;51.67;;;19.27;;
27977;SDS011;15314;49.248;6.968;2023-08-17T04:43:55;52.20;;;18.27;;
27977;SDS011;15314;49.248;6.968;2023-08-17T04:44:55;36.95;;;16.88;;
27977;SDS011;15314;49.248;6.968;2023-08-17T04:45:56;58.35;;;17.40;;
27977;SDS011;15314;49.248;6.968;2023-08-17T04:46:57;22.38;;;16.05;;
27977;SDS011;15314;49.248;6.968;2023-08-17T04:47:57;169.68;;;25.40;;
27977;SDS011;15314;49.248;6.968;2023-08-17T04:48:58;17.58;;;15.93;;
27977;SDS011;15314;49.248;6.968;2023-08-17T04:49:59;218.52;;;23.10;;
27977;SDS011;15314;49.248;6.968;2023-08-17T04:51:00;97.40;;;20.45;;
27977;SDS011;15314;49.248;6.968;2023-08-17T04:52:00;31.60;;;18.45;;
27977;SDS011;15314;49.248;6.968;2023-08-17T04:53:01;17.52;;;15.85;;
27977;SDS011;15314;49.248;6.968;2023-08-17T04:54:02;16.13;;;14.80;;
27977;SDS011;15314;49.248;6.968;2023-08-17T04:55:03;18.05;;;15.93;;
27977;SDS011;15314;49.248;6.968;2023-08-17T04:56:04;15.27;;;13.98;;
27977;SDS011;15314;49.248;6.968;2023-08-17T04:57:05;19.85;;;15.65;;
27977;SDS011;15314;49.248;6.968;2023-08-17T04:58:05;27.98;;;15.75;;
27977;SDS011;15314;49.248;6.968;2023-08-17T04:59:06;23.77;;;15.65;;
27977;SDS011;15314;49.248;6.968;2023-08-17T05:00:07;16.88;;;15.27;;
27977;SDS011;15314;49.248;6.968;2023-08-17T05:01:10;23.92;;;15.43;;
27977;SDS011;15314;49.248;6.968;2023-08-17T05:02:11;45.60;;;16.90;;
27977;SDS011;15314;49.248;6.968;2023-08-17T05:03:12;15.27;;;14.18;;
27977;SDS011;15314;49.248;6.968;2023-08-17T05:04:12;39.45;;;16.63;;
27977;SDS011;15314;49.248;6.968;2023-08-17T05:05:13;16.05;;;14.45;;
27977;SDS011;15314;49.248;6.968;2023-08-17T05:06:14;15.43;;;14.32;;
27977;SDS011;15314;49.248;6.968;2023-08-17T05:07:15;48.42;;;16.40;;
27977;SDS011;15314;49.248;6.968;2023-08-17T05:08:15;15.77;;;14.57;;
27977;SDS011;15314;49.248;6.968;2023-08-17T05:09:16;27.98;;;17.00;;
27977;SDS011;15314;49.248;6.968;2023-08-17T05:10:17;16.33;;;14.90;;
27977;SDS011;15314;49.248;6.968;2023-08-17T05:11:17;16.85;;;15.40;;
27977;SDS011;15314;49.248;6.968;2023-08-17T05:12:18;17.00;;;15.60;;
27977;SDS011;15314;49.248;6.968;2023-08-17T05:13:19;15.70;;;14.18;;
27977;SDS011;15314;49.248;6.968;2023-08-17T05:14:20;15.93;;;14.82;;
27977;SDS011;15314;49.248;6.968;2023-08-17T05:15:21;16.80;;;14.73;;
27977;SDS011;15314;49.248;6.968;2023-08-17T05:16:21;53.45;;;15.32;;
27977;SDS011;15314;49.248;6.968;2023-08-17T05:17:22;13.98;;;13.18;;
27977;SDS011;15314;49.248;6.968;2023-08-17T05:18:23;14.65;;;13.65;;
27977;SDS011;15314;49.248;6.968;2023-08-17T05:19:23;13.90;;;12.85;;
27977;SDS011;15314;49.248;6.968;2023-08-17T05:20:24;15.15;;;13.77;;
27977;SDS011;15314;49.248;6.968;2023-08-17T05:21:25;17.58;;;14.23;;
27977;SDS011;15314;49.248;6.968;2023-08-17T05:22:27;15.88;;;14.68;;
27977;SDS011;15314;49.248;6.968;2023-08-17T05:23:27;14.25;;;12.88;;
27977;SDS011;15314;49.248;6.968;2023-08-17T05:24:28;14.95;;;13.65;;
27977;SDS011;15314;49.248;6.968;2023-08-17T05:25:29;15.40;;;13.98;;
27977;SDS011;15314;49.248;6.968;2023-08-17T05:26:29;15.23;;;12.82;;
27977;SDS011;15314;49.248;6.968;2023-08-17T05:27:31;15.05;;;13.80;;
27977;SDS011;15314;49.248;6.968;2023-08-17T05:28:32;13.50;;;12.70;;
27977;SDS011;15314;49.248;6.968;2023-08-17T05:29:33;14.55;;;13.43;;
27977;SDS011;15314;49.248;6.968;2023-08-17T05:30:35;13.65;;;12.65;;
27977;SDS011;15314;49.248;6.968;2023-08-17T05:31:36;29.35;;;14.50;;
27977;SDS011;15314;49.248;6.968;2023-08-17T05:32:37;18.63;;;14.48;;
27977;SDS011;15314;49.248;6.968;2023-08-17T05:33:40;14.15;;;12.98;;
27977;SDS011;15314;49.248;6.968;2023-08-17T05:34:41;14.02;;;12.93;;
27977;SDS011;15314;49.248;6.968;2023-08-17T05:35:41;14.35;;;13.35;;
27977;SDS011;15314;49.248;6.968;2023-08-17T05:36:42;14.18;;;13.00;;
27977;SDS011;15314;49.248;6.968;2023-08-17T05:37:43;16.30;;;14.50;;
27977;SDS011;15314;49.248;6.968;2023-08-17T05:38:43;16.40;;;15.00;;
27977;SDS011;15314;49.248;6.968;2023-08-17T05:39:44;30.42;;;15.98;;
27977;SDS011;15314;49.248;6.968;2023-08-17T05:40:44;14.15;;;12.95;;
27977;SDS011;15314;49.248;6.968;2023-08-17T05:41:45;15.25;;;14.13;;
27977;SDS011;15314;49.248;6.968;2023-08-17T05:42:46;15.13;;;13.90;;
27977;SDS011;15314;49.248;6.968;2023-08-17T05:43:47;13.02;;;12.15;;
27977;SDS011;15314;49.248;6.968;2023-08-17T05:44:49;13.57;;;12.68;;
27977;SDS011;15314;49.248;6.968;2023-08-17T05:45:50;20.10;;;14.70;;
27977;SDS011;15314;49.248;6.968;2023-08-17T05:46:50;24.15;;;13.27;;
27977;SDS011;15314;49.248;6.968;2023-08-17T05:47:51;13.05;;;12.27;;
27977;SDS011;15314;49.248;6.968;2023-08-17T05:48:52;13.23;;;12.43;;
27977;SDS011;15314;49.248;6.968;2023-08-17T05:49:53;14.23;;;13.10;;
27977;SDS011;15314;49.248;6.968;2023-08-17T05:50:55;20.85;;;18.38;;
27977;SDS011;15314;49.248;6.968;2023-08-17T05:51:57;18.52;;;16.05;;
27977;SDS011;15314;49.248;6.968;2023-08-17T05:52:57;16.30;;;14.98;;
27977;SDS011;15314;49.248;6.968;2023-08-17T05:53:58;13.65;;;12.75;;
27977;SDS011;15314;49.248;6.968;2023-08-17T05:54:59;17.83;;;14.02;;
27977;SDS011;15314;49.248;6.968;2023-08-17T05:56:00;15.07;;;13.57;;
27977;SDS011;15314;49.248;6.968;2023-08-17T05:57:02;16.63;;;15.30;;
27977;SDS011;15314;49.248;6.968;2023-08-17T05:58:03;16.92;;;15.45;;
27977;SDS011;15314;49.248;6.968;2023-08-17T05:59:04;14.70;;;13.52;;
27977;SDS011;15314;49.248;6.968;2023-08-17T06:00:05;13.25;;;12.40;;
27977;SDS011;15314;49.248;6.968;2023-08-17T06:01:12;15.18;;;13.73;;
27977;SDS011;15314;49.248;6.968;2023-08-17T06:02:13;12.95;;;12.07;;
27977;SDS011;15314;49.248;6.968;2023-08-17T06:03:14;13.70;;;12.80;;
27977;SDS011;15314;49.248;6.968;2023-08-17T06:04:15;12.93;;;12.23;;